createdAt,value
2022-09-26T00:01:25.500Z,14.75
2022-09-26T00:06:31.227Z,14.73
2022-09-26T00:11:37.056Z,14.71
2022-09-26T00:16:43.289Z,14.71
2022-09-26T00:21:49.536Z,14.69
2022-09-26T00:26:55.020Z,14.65
2022-09-26T00:32:00.483Z,14.62
2022-09-26T00:37:05.936Z,14.63
2022-09-26T00:42:17.494Z,14.59
2022-09-26T00:47:54.981Z,14.55
2022-09-26T00:53:03.895Z,14.53
2022-09-26T00:58:15.246Z,14.52
2022-09-26T01:03:23.058Z,14.49
2022-09-26T01:08:32.467Z,14.44
2022-09-26T01:13:39.296Z,14.37
2022-09-26T01:18:45.825Z,14.31
2022-09-26T01:24:22.517Z,14.32
2022-09-26T01:29:50.508Z,14.23
2022-09-26T01:35:13.432Z,14.16
2022-09-26T01:40:38.286Z,14.18
2022-09-26T01:45:59.278Z,14.18
2022-09-26T01:51:07.819Z,14.19
2022-09-26T01:56:17.560Z,14.18
2022-09-26T02:01:26.462Z,14.22
2022-09-26T02:06:34.944Z,14.13
2022-09-26T02:11:44.004Z,14.08
2022-09-26T02:16:53.619Z,14.02
2022-09-26T02:22:01.559Z,13.96
2022-09-26T02:27:07.656Z,13.91
2022-09-26T02:32:19.460Z,13.84
2022-09-26T02:37:28.286Z,13.84
2022-09-26T02:42:52.155Z,13.80
2022-09-26T02:48:16.828Z,13.76
2022-09-26T02:53:44.860Z,13.71
2022-09-26T02:59:12.945Z,13.63
2022-09-26T03:04:43.961Z,13.52
2022-09-26T03:09:52.057Z,13.42
2022-09-26T03:14:59.895Z,13.35
2022-09-26T03:20:11.328Z,13.31
2022-09-26T03:25:23.298Z,13.24
2022-09-26T03:30:31.388Z,13.17
2022-09-26T03:35:41.413Z,13.13
2022-09-26T03:40:47.407Z,13.06
2022-09-26T03:46:08.963Z,12.96
2022-09-26T03:51:15.657Z,12.90
2022-09-26T03:56:23.563Z,12.79
2022-09-26T04:01:29.131Z,12.73
2022-09-26T04:06:35.506Z,12.68
2022-09-26T04:11:41.078Z,12.61
2022-09-26T04:16:48.683Z,12.59
2022-09-26T04:21:55.918Z,12.56
2022-09-26T04:27:01.886Z,12.52
2022-09-26T04:32:07.838Z,12.47
2022-09-26T04:37:19.425Z,12.44
2022-09-26T04:42:25.411Z,12.43
2022-09-26T04:47:31.291Z,12.35
2022-09-26T04:52:55.049Z,12.32
2022-09-26T04:58:02.445Z,12.21
2022-09-26T05:03:09.372Z,12.23
2022-09-26T05:08:15.818Z,12.28
2022-09-26T05:13:22.308Z,12.28
2022-09-26T05:18:28.647Z,12.27
2022-09-26T05:23:53.699Z,12.30
2022-09-26T05:29:08.046Z,12.31
2022-09-26T05:34:19.428Z,12.30
2022-09-26T05:39:42.628Z,12.32
2022-09-26T05:44:49.077Z,12.36
2022-09-26T05:49:54.883Z,12.39
2022-09-26T05:55:01.886Z,12.40
2022-09-26T06:00:26.395Z,12.40
2022-09-26T06:05:33.842Z,12.44
2022-09-26T06:10:50.096Z,12.45
2022-09-26T06:15:57.434Z,12.49
2022-09-26T06:21:09.373Z,12.44
2022-09-26T06:26:24.902Z,12.47
2022-09-26T06:31:31.873Z,12.52
2022-09-26T06:36:50.950Z,12.54
2022-09-26T06:41:56.706Z,12.56
2022-09-26T06:47:06.578Z,12.61
2022-09-26T06:52:14.231Z,12.59
2022-09-26T06:57:21.297Z,12.72
2022-09-26T07:02:28.023Z,12.78
2022-09-26T07:07:46.277Z,12.86
2022-09-26T07:12:53.594Z,13.00
2022-09-26T07:18:01.168Z,13.09
2022-09-26T07:23:10.794Z,13.21
2022-09-26T07:28:18.067Z,13.32
2022-09-26T07:33:27.785Z,13.50
2022-09-26T07:38:35.278Z,13.66
2022-09-26T07:44:34.652Z,13.77
2022-09-26T07:49:09.045Z,13.91
2022-09-26T07:54:32.345Z,14.04
2022-09-26T07:59:50.139Z,14.21
2022-09-26T08:05:00.881Z,14.41
2022-09-26T08:10:06.814Z,14.52
2022-09-26T08:15:30.554Z,14.65
2022-09-26T08:20:37.932Z,14.74
2022-09-26T08:25:43.851Z,14.94
2022-09-26T08:31:05.065Z,15.05
2022-09-26T08:36:12.842Z,15.18
2022-09-26T08:41:42.273Z,15.31
2022-09-26T08:47:15.295Z,15.39
2022-09-26T08:52:28.510Z,15.61
2022-09-26T08:57:43.381Z,15.77
2022-09-26T09:03:00.642Z,16.02
2022-09-26T09:08:09.439Z,15.99
2022-09-26T09:13:25.398Z,16.07
2022-09-26T09:18:57.986Z,16.18
2022-09-26T09:24:24.085Z,16.34
2022-09-26T09:29:41.744Z,16.51
2022-09-26T09:35:05.316Z,16.62
2022-09-26T09:40:34.412Z,16.75
2022-09-26T09:45:43.192Z,16.93
2022-09-26T09:51:08.144Z,17.03
2022-09-26T09:56:22.871Z,17.01
2022-09-26T10:01:32.522Z,17.03
2022-09-26T10:06:46.434Z,17.15
2022-09-26T10:11:52.579Z,17.42
2022-09-26T10:17:18.014Z,17.33
2022-09-26T10:22:33.342Z,17.57
2022-09-26T10:27:41.275Z,17.83
2022-09-26T10:32:55.428Z,17.80
2022-09-26T10:38:04.348Z,18.06
2022-09-26T10:43:29.026Z,18.15
2022-09-26T10:54:27.020Z,18.13
2022-09-26T10:59:35.757Z,18.17
2022-09-26T11:05:03.014Z,18.43
2022-09-26T11:10:16.072Z,18.41
2022-09-26T11:15:24.125Z,18.39
2022-09-26T11:20:51.462Z,18.34
2022-09-26T11:26:18.390Z,18.28
2022-09-26T11:31:29.751Z,18.37
2022-09-26T11:36:56.200Z,18.64
2022-09-26T11:42:17.320Z,18.74
2022-09-26T11:47:42.741Z,18.78
2022-09-26T11:52:55.585Z,18.97
2022-09-26T11:58:14.941Z,18.83
2022-09-26T12:03:27.989Z,19.01
2022-09-26T12:08:53.577Z,19.14
2022-09-26T12:14:05.144Z,19.10
2022-09-26T12:19:38.103Z,19.01
2022-09-26T12:24:52.558Z,19.08
2022-09-26T12:30:19.143Z,19.07
2022-09-26T12:35:50.270Z,19.05
2022-09-26T12:40:58.892Z,19.09
2022-09-26T12:46:22.095Z,19.13
2022-09-26T12:51:40.268Z,19.17
2022-09-26T12:57:07.762Z,19.30
2022-09-26T13:02:17.301Z,19.26
2022-09-26T13:07:39.208Z,19.20
2022-09-26T13:13:14.505Z,19.34
2022-09-26T13:18:26.508Z,19.36
2022-09-26T13:23:42.321Z,19.35
2022-09-26T13:29:12.837Z,19.38
2022-09-26T13:34:06.709Z,19.44
2022-09-26T13:39:18.078Z,20.38
2022-09-26T13:44:46.077Z,19.70
2022-09-26T13:50:16.129Z,19.60
2022-09-26T13:55:22.852Z,19.47
2022-09-26T14:00:40.969Z,19.54
2022-09-26T14:05:50.827Z,19.56
2022-09-26T14:10:59.255Z,19.66
2022-09-26T14:16:17.315Z,19.80
2022-09-26T14:21:43.886Z,20.05
2022-09-26T14:26:54.724Z,20.20
2022-09-26T14:32:12.132Z,20.13
2022-09-26T14:37:35.276Z,19.93
2022-09-26T14:42:46.551Z,19.87
2022-09-26T14:47:57.829Z,19.71
2022-09-26T14:53:27.713Z,19.80
2022-09-26T14:58:39.163Z,19.77
2022-09-26T15:03:46.331Z,19.78
2022-09-26T15:08:53.656Z,19.74
2022-09-26T15:14:01.748Z,19.71
2022-09-26T15:19:15.945Z,19.62
2022-09-26T15:24:30.152Z,19.54
2022-09-26T15:29:37.136Z,19.42
2022-09-26T15:34:42.530Z,19.32
2022-09-26T15:39:48.101Z,19.22
2022-09-26T15:44:59.400Z,19.09
2022-09-26T15:50:14.425Z,18.88
2022-09-26T15:55:25.728Z,18.79
2022-09-26T16:00:37.139Z,19.29
2022-09-26T16:05:45.941Z,18.93
2022-09-26T16:11:00.651Z,18.72
2022-09-26T16:16:09.246Z,18.61
2022-09-26T16:21:26.939Z,18.42
2022-09-26T16:26:40.263Z,18.31
2022-09-26T16:31:48.884Z,18.14
2022-09-26T16:36:55.100Z,18.00
2022-09-26T16:42:04.894Z,17.92
2022-09-26T16:47:44.716Z,17.79
2022-09-26T16:52:50.113Z,17.68
2022-09-26T16:58:04.245Z,17.52
2022-09-26T17:03:25.199Z,17.41
2022-09-26T17:08:30.581Z,17.29
2022-09-26T17:13:38.736Z,17.18
2022-09-26T17:18:45.019Z,17.08
2022-09-26T17:23:50.741Z,16.96
2022-09-26T17:28:57.938Z,16.97
2022-09-26T17:34:03.970Z,16.92
2022-09-26T17:39:12.431Z,16.90
2022-09-26T17:44:19.505Z,16.83
2022-09-26T17:49:28.421Z,16.79
2022-09-26T17:54:40.955Z,16.74
2022-09-26T17:59:46.573Z,16.73
2022-09-26T18:04:55.739Z,16.66
2022-09-26T18:10:01.191Z,16.53
2022-09-26T18:15:07.453Z,16.49
2022-09-26T18:20:12.840Z,16.37
2022-09-26T18:25:21.929Z,16.29
2022-09-26T18:30:27.866Z,16.18
2022-09-26T18:35:33.407Z,16.14
2022-09-26T18:40:47.636Z,16.09
2022-09-26T18:45:53.788Z,16.04
2022-09-26T18:51:00.019Z,16.00
2022-09-26T18:56:24.336Z,15.96
2022-09-26T19:01:37.698Z,15.89
2022-09-26T19:06:45.398Z,15.84
2022-09-26T19:11:50.776Z,15.81
2022-09-26T19:16:57.512Z,15.71
2022-09-26T19:22:07.255Z,15.66
2022-09-26T19:27:21.976Z,15.64
2022-09-26T19:32:36.402Z,15.55
2022-09-26T19:37:42.040Z,15.54
2022-09-26T19:42:48.084Z,15.44
2022-09-26T19:47:55.990Z,15.40
2022-09-26T19:53:03.448Z,15.37
2022-09-26T19:58:17.428Z,15.30
2022-09-26T20:03:31.930Z,15.24
2022-09-26T20:08:37.340Z,15.20
2022-09-26T20:14:00.871Z,15.17
2022-09-26T20:19:08.296Z,15.10
2022-09-26T20:24:18.439Z,15.08
2022-09-26T20:29:24.008Z,15.04
2022-09-26T20:34:30.276Z,14.97
2022-09-26T20:39:35.661Z,14.92
2022-09-26T20:44:41.647Z,14.89
2022-09-26T20:49:55.818Z,14.83
2022-09-26T20:55:01.231Z,14.78
2022-09-26T21:00:07.711Z,14.77
2022-09-26T21:05:22.839Z,14.73
2022-09-26T21:10:34.828Z,14.70
2022-09-26T21:15:42.019Z,14.72
2022-09-26T21:20:47.470Z,14.64
2022-09-26T21:26:21.888Z,14.66
2022-09-26T21:31:30.592Z,14.61
2022-09-26T21:36:39.032Z,14.56
2022-09-26T21:41:46.042Z,14.50
2022-09-26T21:46:52.205Z,14.48
2022-09-26T21:52:03.492Z,14.44
2022-09-26T21:57:14.749Z,14.40
2022-09-26T22:02:21.004Z,14.36
2022-09-26T22:07:26.476Z,14.33
2022-09-26T22:12:32.036Z,14.38
2022-09-26T22:17:37.496Z,14.41
2022-09-26T22:22:42.891Z,14.38
2022-09-26T22:27:48.273Z,14.38
2022-09-26T22:32:53.721Z,14.39
2022-09-26T22:37:59.113Z,14.40
2022-09-26T22:43:04.685Z,14.42
2022-09-26T22:48:10.144Z,14.40
2022-09-26T22:53:15.530Z,14.43
2022-09-26T22:58:20.929Z,14.47
2022-09-26T23:03:26.314Z,14.48
2022-09-26T23:08:32.644Z,14.48
2022-09-26T23:13:39.327Z,14.48
2022-09-26T23:18:45.745Z,14.49
2022-09-26T23:23:55.016Z,14.44
2022-09-26T23:29:01.378Z,14.40
2022-09-26T23:34:06.973Z,14.32
2022-09-26T23:39:12.433Z,14.32
2022-09-26T23:44:17.807Z,14.32
2022-09-26T23:49:23.189Z,14.30
2022-09-26T23:54:29.605Z,14.25
2022-09-26T23:59:34.983Z,14.23
